sensor_id;sensor_type;location;lat;lon;timestamp;temperature;humidity
19330;DHT22;9799;48.214;16.388;2022-09-09T00:03:12;19.30;99.90
19330;DHT22;9799;48.214;16.388;2022-09-09T00:06:42;19.20;99.90
19330;DHT22;9799;48.214;16.388;2022-09-09T00:10:13;19.20;99.90
19330;DHT22;9799;48.214;16.388;2022-09-09T00:13:40;19.20;99.90
19330;DHT22;9799;48.214;16.388;2022-09-09T00:17:09;19.10;99.90
19330;DHT22;9799;48.214;16.388;2022-09-09T00:20:37;19.20;99.90
19330;DHT22;9799;48.214;16.388;2022-09-09T00:24:07;19.20;99.90
19330;DHT22;9799;48.214;16.388;2022-09-09T00:27:34;19.20;99.90
19330;DHT22;9799;48.214;16.388;2022-09-09T00:31:01;19.20;99.90
19330;DHT22;9799;48.214;16.388;2022-09-09T00:34:32;19.10;99.90
19330;DHT22;9799;48.214;16.388;2022-09-09T00:37:56;19.10;99.90
19330;DHT22;9799;48.214;16.388;2022-09-09T00:41:21;19.10;99.90
19330;DHT22;9799;48.214;16.388;2022-09-09T00:44:53;19.10;99.90
19330;DHT22;9799;48.214;16.388;2022-09-09T00:48:14;19.00;99.90
19330;DHT22;9799;48.214;16.388;2022-09-09T00:51:45;19.00;99.90
19330;DHT22;9799;48.214;16.388;2022-09-09T00:55:14;19.00;99.90
19330;DHT22;9799;48.214;16.388;2022-09-09T00:58:38;18.90;99.90
19330;DHT22;9799;48.214;16.388;2022-09-09T01:02:01;19.00;99.90
19330;DHT22;9799;48.214;16.388;2022-09-09T01:09:15;19.00;99.90
19330;DHT22;9799;48.214;16.388;2022-09-09T01:12:41;19.00;99.90
19330;DHT22;9799;48.214;16.388;2022-09-09T01:16:04;19.00;99.90
19330;DHT22;9799;48.214;16.388;2022-09-09T01:19:38;18.90;99.90
19330;DHT22;9799;48.214;16.388;2022-09-09T01:23:25;18.90;99.90
19330;DHT22;9799;48.214;16.388;2022-09-09T01:26:51;18.80;99.90
19330;DHT22;9799;48.214;16.388;2022-09-09T01:30:15;18.90;99.90
19330;DHT22;9799;48.214;16.388;2022-09-09T01:33:37;18.90;99.90
19330;DHT22;9799;48.214;16.388;2022-09-09T01:37:00;18.90;99.90
19330;DHT22;9799;48.214;16.388;2022-09-09T01:40:24;18.90;99.90
19330;DHT22;9799;48.214;16.388;2022-09-09T01:43:47;18.90;99.90
19330;DHT22;9799;48.214;16.388;2022-09-09T01:47:09;18.90;99.90
19330;DHT22;9799;48.214;16.388;2022-09-09T01:50:30;18.90;99.90
19330;DHT22;9799;48.214;16.388;2022-09-09T01:53:52;18.80;99.90
19330;DHT22;9799;48.214;16.388;2022-09-09T01:57:18;18.80;99.90
19330;DHT22;9799;48.214;16.388;2022-09-09T02:00:50;18.80;99.90
19330;DHT22;9799;48.214;16.388;2022-09-09T02:04:25;18.80;99.90
19330;DHT22;9799;48.214;16.388;2022-09-09T02:07:51;18.80;99.90
19330;DHT22;9799;48.214;16.388;2022-09-09T02:11:17;18.80;99.90
19330;DHT22;9799;48.214;16.388;2022-09-09T02:14:41;18.80;99.90
19330;DHT22;9799;48.214;16.388;2022-09-09T02:18:08;18.70;99.90
19330;DHT22;9799;48.214;16.388;2022-09-09T02:21:31;18.60;99.90
19330;DHT22;9799;48.214;16.388;2022-09-09T02:24:57;18.60;99.90
19330;DHT22;9799;48.214;16.388;2022-09-09T02:28:20;18.40;99.90
19330;DHT22;9799;48.214;16.388;2022-09-09T02:31:45;18.30;99.90
19330;DHT22;9799;48.214;16.388;2022-09-09T02:35:12;18.20;99.90
19330;DHT22;9799;48.214;16.388;2022-09-09T02:38:37;18.30;99.90
19330;DHT22;9799;48.214;16.388;2022-09-09T02:41:59;18.40;99.90
19330;DHT22;9799;48.214;16.388;2022-09-09T02:45:27;18.40;99.90
19330;DHT22;9799;48.214;16.388;2022-09-09T02:49:00;18.30;99.90
19330;DHT22;9799;48.214;16.388;2022-09-09T02:52:27;18.20;99.90
19330;DHT22;9799;48.214;16.388;2022-09-09T02:55:53;17.90;99.90
19330;DHT22;9799;48.214;16.388;2022-09-09T02:59:16;17.70;99.90
19330;DHT22;9799;48.214;16.388;2022-09-09T03:02:37;17.70;99.90
19330;DHT22;9799;48.214;16.388;2022-09-09T03:05:59;17.70;99.90
19330;DHT22;9799;48.214;16.388;2022-09-09T03:09:21;17.70;99.90
19330;DHT22;9799;48.214;16.388;2022-09-09T03:12:42;17.60;99.90
19330;DHT22;9799;48.214;16.388;2022-09-09T03:16:04;17.50;99.90
19330;DHT22;9799;48.214;16.388;2022-09-09T03:19:25;17.50;99.90
19330;DHT22;9799;48.214;16.388;2022-09-09T03:22:47;17.50;99.90
19330;DHT22;9799;48.214;16.388;2022-09-09T03:26:10;17.50;99.90
19330;DHT22;9799;48.214;16.388;2022-09-09T03:29:31;17.50;99.90
19330;DHT22;9799;48.214;16.388;2022-09-09T03:32:52;17.50;99.90
19330;DHT22;9799;48.214;16.388;2022-09-09T03:36:15;17.50;99.90
19330;DHT22;9799;48.214;16.388;2022-09-09T03:39:36;17.60;99.90
19330;DHT22;9799;48.214;16.388;2022-09-09T03:42:58;17.60;99.90
19330;DHT22;9799;48.214;16.388;2022-09-09T03:46:21;17.60;99.90
19330;DHT22;9799;48.214;16.388;2022-09-09T03:49:42;17.60;99.90
19330;DHT22;9799;48.214;16.388;2022-09-09T03:53:04;17.70;99.90
19330;DHT22;9799;48.214;16.388;2022-09-09T03:56:25;17.80;99.90
19330;DHT22;9799;48.214;16.388;2022-09-09T03:59:48;17.50;99.90
19330;DHT22;9799;48.214;16.388;2022-09-09T04:03:09;17.40;99.90
19330;DHT22;9799;48.214;16.388;2022-09-09T04:06:30;17.20;99.90
19330;DHT22;9799;48.214;16.388;2022-09-09T04:09:51;17.20;99.90
19330;DHT22;9799;48.214;16.388;2022-09-09T04:13:13;17.30;99.90
19330;DHT22;9799;48.214;16.388;2022-09-09T04:16:38;17.30;99.90
19330;DHT22;9799;48.214;16.388;2022-09-09T04:20:03;17.40;99.90
19330;DHT22;9799;48.214;16.388;2022-09-09T04:23:25;17.20;99.90
19330;DHT22;9799;48.214;16.388;2022-09-09T04:26:47;17.10;99.90
19330;DHT22;9799;48.214;16.388;2022-09-09T04:30:09;17.10;99.90
19330;DHT22;9799;48.214;16.388;2022-09-09T04:33:34;17.10;99.90
19330;DHT22;9799;48.214;16.388;2022-09-09T04:36:55;17.10;99.90
19330;DHT22;9799;48.214;16.388;2022-09-09T04:40:16;17.10;99.90
19330;DHT22;9799;48.214;16.388;2022-09-09T04:43:38;17.00;99.90
19330;DHT22;9799;48.214;16.388;2022-09-09T04:46:59;17.00;99.90
19330;DHT22;9799;48.214;16.388;2022-09-09T04:50:21;16.90;99.90
19330;DHT22;9799;48.214;16.388;2022-09-09T04:53:42;16.90;99.90
19330;DHT22;9799;48.214;16.388;2022-09-09T04:57:04;16.90;99.90
19330;DHT22;9799;48.214;16.388;2022-09-09T05:00:25;16.90;99.90
19330;DHT22;9799;48.214;16.388;2022-09-09T05:03:46;16.90;99.90
19330;DHT22;9799;48.214;16.388;2022-09-09T05:07:09;16.80;99.90
19330;DHT22;9799;48.214;16.388;2022-09-09T05:10:30;16.70;99.90
19330;DHT22;9799;48.214;16.388;2022-09-09T05:13:52;16.60;99.90
19330;DHT22;9799;48.214;16.388;2022-09-09T05:17:13;16.60;99.90
19330;DHT22;9799;48.214;16.388;2022-09-09T05:20:36;16.60;99.90
19330;DHT22;9799;48.214;16.388;2022-09-09T05:23:58;16.70;99.90
19330;DHT22;9799;48.214;16.388;2022-09-09T05:27:20;16.50;99.90
19330;DHT22;9799;48.214;16.388;2022-09-09T05:30:41;16.50;99.90
19330;DHT22;9799;48.214;16.388;2022-09-09T05:34:02;16.70;99.90
19330;DHT22;9799;48.214;16.388;2022-09-09T05:37:23;16.80;99.90
19330;DHT22;9799;48.214;16.388;2022-09-09T05:40:48;16.80;99.90
19330;DHT22;9799;48.214;16.388;2022-09-09T05:44:09;16.90;99.90
19330;DHT22;9799;48.214;16.388;2022-09-09T05:47:31;16.80;99.90
19330;DHT22;9799;48.214;16.388;2022-09-09T05:50:52;16.90;99.90
19330;DHT22;9799;48.214;16.388;2022-09-09T05:54:14;17.00;99.90
19330;DHT22;9799;48.214;16.388;2022-09-09T05:57:36;17.10;99.90
19330;DHT22;9799;48.214;16.388;2022-09-09T06:01:04;17.10;99.90
19330;DHT22;9799;48.214;16.388;2022-09-09T06:04:25;17.10;99.90
19330;DHT22;9799;48.214;16.388;2022-09-09T06:07:46;17.20;99.90
19330;DHT22;9799;48.214;16.388;2022-09-09T06:11:10;17.40;99.90
19330;DHT22;9799;48.214;16.388;2022-09-09T06:14:33;17.50;99.90
19330;DHT22;9799;48.214;16.388;2022-09-09T06:17:54;17.20;99.90
19330;DHT22;9799;48.214;16.388;2022-09-09T06:21:17;17.10;99.90
19330;DHT22;9799;48.214;16.388;2022-09-09T06:24:38;17.20;99.90
19330;DHT22;9799;48.214;16.388;2022-09-09T06:27:59;17.40;99.90
19330;DHT22;9799;48.214;16.388;2022-09-09T06:31:24;17.70;99.90
19330;DHT22;9799;48.214;16.388;2022-09-09T06:34:45;17.90;99.90
19330;DHT22;9799;48.214;16.388;2022-09-09T06:38:08;18.10;99.90
19330;DHT22;9799;48.214;16.388;2022-09-09T06:41:31;18.10;99.90
19330;DHT22;9799;48.214;16.388;2022-09-09T06:44:52;18.00;99.90
19330;DHT22;9799;48.214;16.388;2022-09-09T06:48:15;18.30;99.90
19330;DHT22;9799;48.214;16.388;2022-09-09T06:51:37;18.50;99.90
19330;DHT22;9799;48.214;16.388;2022-09-09T06:55:02;18.40;99.90
19330;DHT22;9799;48.214;16.388;2022-09-09T06:58:23;18.50;99.90
19330;DHT22;9799;48.214;16.388;2022-09-09T07:01:44;18.60;99.90
19330;DHT22;9799;48.214;16.388;2022-09-09T07:05:08;18.60;99.90
19330;DHT22;9799;48.214;16.388;2022-09-09T07:08:29;18.70;99.90
19330;DHT22;9799;48.214;16.388;2022-09-09T07:11:51;18.80;99.90
19330;DHT22;9799;48.214;16.388;2022-09-09T07:15:13;19.00;99.90
19330;DHT22;9799;48.214;16.388;2022-09-09T07:18:35;19.00;99.90
19330;DHT22;9799;48.214;16.388;2022-09-09T07:21:57;19.20;99.90
19330;DHT22;9799;48.214;16.388;2022-09-09T07:25:19;19.40;99.90
19330;DHT22;9799;48.214;16.388;2022-09-09T07:28:41;19.40;99.90
19330;DHT22;9799;48.214;16.388;2022-09-09T07:32:02;19.20;99.90
19330;DHT22;9799;48.214;16.388;2022-09-09T07:35:24;19.00;99.90
19330;DHT22;9799;48.214;16.388;2022-09-09T07:38:49;18.90;99.90
19330;DHT22;9799;48.214;16.388;2022-09-09T07:42:11;19.10;99.90
19330;DHT22;9799;48.214;16.388;2022-09-09T07:45:33;19.40;99.90
19330;DHT22;9799;48.214;16.388;2022-09-09T07:48:56;19.70;99.90
19330;DHT22;9799;48.214;16.388;2022-09-09T07:52:18;19.70;99.90
19330;DHT22;9799;48.214;16.388;2022-09-09T07:55:41;19.60;99.90
19330;DHT22;9799;48.214;16.388;2022-09-09T07:59:02;19.40;99.90
19330;DHT22;9799;48.214;16.388;2022-09-09T08:02:26;19.50;99.90
19330;DHT22;9799;48.214;16.388;2022-09-09T08:05:48;19.50;99.90
19330;DHT22;9799;48.214;16.388;2022-09-09T08:09:10;19.60;99.90
19330;DHT22;9799;48.214;16.388;2022-09-09T08:12:32;19.70;99.90
19330;DHT22;9799;48.214;16.388;2022-09-09T08:15:53;19.80;99.90
19330;DHT22;9799;48.214;16.388;2022-09-09T08:19:15;19.80;99.90
19330;DHT22;9799;48.214;16.388;2022-09-09T08:22:36;20.00;99.90
19330;DHT22;9799;48.214;16.388;2022-09-09T08:26:03;20.20;99.90
19330;DHT22;9799;48.214;16.388;2022-09-09T08:29:26;20.10;99.90
19330;DHT22;9799;48.214;16.388;2022-09-09T08:32:48;20.30;99.90
19330;DHT22;9799;48.214;16.388;2022-09-09T08:36:12;20.40;99.90
19330;DHT22;9799;48.214;16.388;2022-09-09T08:39:34;20.60;99.90
19330;DHT22;9799;48.214;16.388;2022-09-09T08:42:57;20.80;99.90
19330;DHT22;9799;48.214;16.388;2022-09-09T08:46:25;21.00;99.90
19330;DHT22;9799;48.214;16.388;2022-09-09T08:53:40;21.10;99.90
19330;DHT22;9799;48.214;16.388;2022-09-09T08:57:04;21.00;99.90
19330;DHT22;9799;48.214;16.388;2022-09-09T09:00:40;21.00;99.90
19330;DHT22;9799;48.214;16.388;2022-09-09T09:04:10;21.20;99.90
19330;DHT22;9799;48.214;16.388;2022-09-09T09:07:46;21.40;99.90
19330;DHT22;9799;48.214;16.388;2022-09-09T09:11:09;21.60;99.90
19330;DHT22;9799;48.214;16.388;2022-09-09T09:14:33;21.80;99.90
19330;DHT22;9799;48.214;16.388;2022-09-09T09:17:55;22.10;99.90
19330;DHT22;9799;48.214;16.388;2022-09-09T09:21:21;22.30;99.90
19330;DHT22;9799;48.214;16.388;2022-09-09T09:24:51;22.10;99.90
19330;DHT22;9799;48.214;16.388;2022-09-09T09:28:16;22.10;99.90
19330;DHT22;9799;48.214;16.388;2022-09-09T09:31:38;22.30;99.90
19330;DHT22;9799;48.214;16.388;2022-09-09T09:34:59;22.50;99.90
19330;DHT22;9799;48.214;16.388;2022-09-09T09:38:24;22.70;99.90
19330;DHT22;9799;48.214;16.388;2022-09-09T09:41:46;22.50;99.90
19330;DHT22;9799;48.214;16.388;2022-09-09T09:45:12;22.40;99.90
19330;DHT22;9799;48.214;16.388;2022-09-09T09:48:36;22.40;99.90
19330;DHT22;9799;48.214;16.388;2022-09-09T09:52:00;22.60;99.90
19330;DHT22;9799;48.214;16.388;2022-09-09T09:55:23;22.40;99.90
19330;DHT22;9799;48.214;16.388;2022-09-09T09:58:50;22.50;99.90
19330;DHT22;9799;48.214;16.388;2022-09-09T10:02:16;23.00;99.90
19330;DHT22;9799;48.214;16.388;2022-09-09T10:05:45;23.00;99.90
19330;DHT22;9799;48.214;16.388;2022-09-09T10:09:21;22.90;99.90
19330;DHT22;9799;48.214;16.388;2022-09-09T10:12:52;22.90;99.90
19330;DHT22;9799;48.214;16.388;2022-09-09T10:16:25;22.70;99.90
19330;DHT22;9799;48.214;16.388;2022-09-09T10:19:58;22.60;99.90
19330;DHT22;9799;48.214;16.388;2022-09-09T10:23:38;22.80;99.90
19330;DHT22;9799;48.214;16.388;2022-09-09T10:27:05;23.00;99.90
19330;DHT22;9799;48.214;16.388;2022-09-09T10:30:41;23.40;99.90
19330;DHT22;9799;48.214;16.388;2022-09-09T10:34:18;23.40;99.90
19330;DHT22;9799;48.214;16.388;2022-09-09T10:37:49;23.10;99.90
19330;DHT22;9799;48.214;16.388;2022-09-09T10:41:16;22.80;99.90
19330;DHT22;9799;48.214;16.388;2022-09-09T10:44:49;22.80;99.90
19330;DHT22;9799;48.214;16.388;2022-09-09T10:48:23;22.90;99.90
19330;DHT22;9799;48.214;16.388;2022-09-09T10:51:54;23.00;99.90
19330;DHT22;9799;48.214;16.388;2022-09-09T10:55:20;23.20;99.90
19330;DHT22;9799;48.214;16.388;2022-09-09T10:58:48;23.40;99.90
19330;DHT22;9799;48.214;16.388;2022-09-09T11:02:15;23.30;99.90
19330;DHT22;9799;48.214;16.388;2022-09-09T11:05:42;23.30;99.90
19330;DHT22;9799;48.214;16.388;2022-09-09T11:09:05;23.20;99.90
19330;DHT22;9799;48.214;16.388;2022-09-09T11:12:27;23.10;99.90
19330;DHT22;9799;48.214;16.388;2022-09-09T11:15:53;23.10;99.90
19330;DHT22;9799;48.214;16.388;2022-09-09T11:19:21;23.20;99.90
19330;DHT22;9799;48.214;16.388;2022-09-09T11:22:50;23.20;99.90
19330;DHT22;9799;48.214;16.388;2022-09-09T11:26:16;23.20;99.90
19330;DHT22;9799;48.214;16.388;2022-09-09T11:33:58;23.50;99.90
19330;DHT22;9799;48.214;16.388;2022-09-09T11:37:44;23.60;99.90
19330;DHT22;9799;48.214;16.388;2022-09-09T11:41:14;23.70;99.90
19330;DHT22;9799;48.214;16.388;2022-09-09T11:44:35;23.50;99.90
19330;DHT22;9799;48.214;16.388;2022-09-09T11:47:58;23.70;99.90
19330;DHT22;9799;48.214;16.388;2022-09-09T11:51:26;23.70;99.90
19330;DHT22;9799;48.214;16.388;2022-09-09T11:54:49;23.90;99.90
19330;DHT22;9799;48.214;16.388;2022-09-09T11:58:17;23.90;99.90
19330;DHT22;9799;48.214;16.388;2022-09-09T12:01:42;23.80;99.90
19330;DHT22;9799;48.214;16.388;2022-09-09T12:05:07;23.80;99.90
19330;DHT22;9799;48.214;16.388;2022-09-09T12:08:29;23.80;99.90
19330;DHT22;9799;48.214;16.388;2022-09-09T12:11:51;23.80;99.90
19330;DHT22;9799;48.214;16.388;2022-09-09T12:15:24;23.80;99.90
19330;DHT22;9799;48.214;16.388;2022-09-09T12:18:47;23.90;99.90
19330;DHT22;9799;48.214;16.388;2022-09-09T12:22:19;23.90;99.90
19330;DHT22;9799;48.214;16.388;2022-09-09T12:29:38;23.90;99.90
19330;DHT22;9799;48.214;16.388;2022-09-09T12:33:08;23.90;99.90
19330;DHT22;9799;48.214;16.388;2022-09-09T12:36:33;23.90;99.90
19330;DHT22;9799;48.214;16.388;2022-09-09T12:39:56;23.90;99.90
19330;DHT22;9799;48.214;16.388;2022-09-09T12:43:18;23.90;99.90
19330;DHT22;9799;48.214;16.388;2022-09-09T12:46:42;23.90;99.90
19330;DHT22;9799;48.214;16.388;2022-09-09T12:50:15;24.00;99.90
19330;DHT22;9799;48.214;16.388;2022-09-09T12:53:37;23.90;99.90
19330;DHT22;9799;48.214;16.388;2022-09-09T12:56:58;23.80;99.90
19330;DHT22;9799;48.214;16.388;2022-09-09T13:00:22;23.70;99.90
19330;DHT22;9799;48.214;16.388;2022-09-09T13:03:43;23.80;99.90
19330;DHT22;9799;48.214;16.388;2022-09-09T13:07:08;23.70;99.90
19330;DHT22;9799;48.214;16.388;2022-09-09T13:10:33;23.60;99.90
19330;DHT22;9799;48.214;16.388;2022-09-09T13:13:58;23.50;99.90
19330;DHT22;9799;48.214;16.388;2022-09-09T13:17:22;23.50;99.90
19330;DHT22;9799;48.214;16.388;2022-09-09T13:20:46;23.60;99.90
19330;DHT22;9799;48.214;16.388;2022-09-09T13:24:26;23.60;99.90
19330;DHT22;9799;48.214;16.388;2022-09-09T13:27:54;23.60;99.90
19330;DHT22;9799;48.214;16.388;2022-09-09T13:31:21;23.60;99.90
19330;DHT22;9799;48.214;16.388;2022-09-09T13:34:51;23.60;99.90
19330;DHT22;9799;48.214;16.388;2022-09-09T13:38:14;23.50;99.90
19330;DHT22;9799;48.214;16.388;2022-09-09T13:41:42;23.40;99.90
19330;DHT22;9799;48.214;16.388;2022-09-09T13:45:05;23.40;99.90
19330;DHT22;9799;48.214;16.388;2022-09-09T13:48:27;23.30;99.90
19330;DHT22;9799;48.214;16.388;2022-09-09T13:51:50;23.30;99.90
19330;DHT22;9799;48.214;16.388;2022-09-09T13:55:13;23.30;99.90
19330;DHT22;9799;48.214;16.388;2022-09-09T13:58:36;23.20;99.90
19330;DHT22;9799;48.214;16.388;2022-09-09T14:01:57;23.10;99.90
19330;DHT22;9799;48.214;16.388;2022-09-09T14:05:19;23.10;99.90
19330;DHT22;9799;48.214;16.388;2022-09-09T14:08:42;23.00;99.90
19330;DHT22;9799;48.214;16.388;2022-09-09T14:12:04;23.00;99.90
19330;DHT22;9799;48.214;16.388;2022-09-09T14:15:27;23.00;99.90
19330;DHT22;9799;48.214;16.388;2022-09-09T14:18:48;22.90;99.90
19330;DHT22;9799;48.214;16.388;2022-09-09T14:22:10;22.90;99.90
19330;DHT22;9799;48.214;16.388;2022-09-09T14:25:31;22.90;99.90
19330;DHT22;9799;48.214;16.388;2022-09-09T14:28:53;22.80;99.90
19330;DHT22;9799;48.214;16.388;2022-09-09T14:32:15;22.90;99.90
19330;DHT22;9799;48.214;16.388;2022-09-09T14:35:36;22.90;99.90
19330;DHT22;9799;48.214;16.388;2022-09-09T14:38:58;22.90;99.90
19330;DHT22;9799;48.214;16.388;2022-09-09T14:42:19;22.70;99.90
19330;DHT22;9799;48.214;16.388;2022-09-09T14:45:44;22.60;99.90
19330;DHT22;9799;48.214;16.388;2022-09-09T14:49:06;22.50;99.90
19330;DHT22;9799;48.214;16.388;2022-09-09T14:52:27;22.30;99.90
19330;DHT22;9799;48.214;16.388;2022-09-09T14:55:49;22.30;99.90
19330;DHT22;9799;48.214;16.388;2022-09-09T14:59:10;22.10;99.90
19330;DHT22;9799;48.214;16.388;2022-09-09T15:02:32;22.00;99.90
19330;DHT22;9799;48.214;16.388;2022-09-09T15:05:55;22.00;99.90
19330;DHT22;9799;48.214;16.388;2022-09-09T15:09:17;22.10;99.90
19330;DHT22;9799;48.214;16.388;2022-09-09T15:12:39;21.90;99.90
19330;DHT22;9799;48.214;16.388;2022-09-09T15:16:05;21.90;99.90
19330;DHT22;9799;48.214;16.388;2022-09-09T15:19:26;21.90;99.90
19330;DHT22;9799;48.214;16.388;2022-09-09T15:22:49;21.80;99.90
19330;DHT22;9799;48.214;16.388;2022-09-09T15:26:12;21.80;99.90
19330;DHT22;9799;48.214;16.388;2022-09-09T15:29:33;21.80;99.90
19330;DHT22;9799;48.214;16.388;2022-09-09T15:32:54;21.80;99.90
19330;DHT22;9799;48.214;16.388;2022-09-09T15:36:17;21.80;99.90
19330;DHT22;9799;48.214;16.388;2022-09-09T15:39:40;21.80;99.90
19330;DHT22;9799;48.214;16.388;2022-09-09T15:43:01;21.70;99.90
19330;DHT22;9799;48.214;16.388;2022-09-09T15:46:27;21.60;99.90
19330;DHT22;9799;48.214;16.388;2022-09-09T15:49:48;21.60;99.90
19330;DHT22;9799;48.214;16.388;2022-09-09T15:53:10;21.70;99.90
19330;DHT22;9799;48.214;16.388;2022-09-09T15:56:32;21.60;99.90
19330;DHT22;9799;48.214;16.388;2022-09-09T15:59:54;21.60;99.90
19330;DHT22;9799;48.214;16.388;2022-09-09T16:03:15;21.60;99.90
19330;DHT22;9799;48.214;16.388;2022-09-09T16:06:37;21.60;99.90
19330;DHT22;9799;48.214;16.388;2022-09-09T16:09:58;21.50;99.90
19330;DHT22;9799;48.214;16.388;2022-09-09T16:13:21;21.40;99.90
19330;DHT22;9799;48.214;16.388;2022-09-09T16:16:42;21.40;99.90
19330;DHT22;9799;48.214;16.388;2022-09-09T16:20:04;21.30;99.90
19330;DHT22;9799;48.214;16.388;2022-09-09T16:23:28;21.40;99.90
19330;DHT22;9799;48.214;16.388;2022-09-09T16:26:51;21.40;99.90
19330;DHT22;9799;48.214;16.388;2022-09-09T16:30:15;21.30;99.90
19330;DHT22;9799;48.214;16.388;2022-09-09T16:33:36;21.30;99.90
19330;DHT22;9799;48.214;16.388;2022-09-09T16:36:57;21.30;99.90
19330;DHT22;9799;48.214;16.388;2022-09-09T16:40:18;21.30;99.90
19330;DHT22;9799;48.214;16.388;2022-09-09T16:43:40;21.30;99.90
19330;DHT22;9799;48.214;16.388;2022-09-09T16:47:03;21.10;99.90
19330;DHT22;9799;48.214;16.388;2022-09-09T16:50:24;21.00;99.90
19330;DHT22;9799;48.214;16.388;2022-09-09T16:53:46;20.90;99.90
19330;DHT22;9799;48.214;16.388;2022-09-09T16:57:07;21.00;99.90
19330;DHT22;9799;48.214;16.388;2022-09-09T17:00:28;21.00;99.90
19330;DHT22;9799;48.214;16.388;2022-09-09T17:03:53;20.90;99.90
19330;DHT22;9799;48.214;16.388;2022-09-09T17:07:15;20.70;99.90
19330;DHT22;9799;48.214;16.388;2022-09-09T17:10:40;20.70;99.90
19330;DHT22;9799;48.214;16.388;2022-09-09T17:14:02;20.60;99.90
19330;DHT22;9799;48.214;16.388;2022-09-09T17:17:23;20.60;99.90
19330;DHT22;9799;48.214;16.388;2022-09-09T17:20:45;20.40;99.90
19330;DHT22;9799;48.214;16.388;2022-09-09T17:24:06;20.30;99.90
19330;DHT22;9799;48.214;16.388;2022-09-09T17:27:28;20.20;99.90
19330;DHT22;9799;48.214;16.388;2022-09-09T17:30:52;20.00;99.90
19330;DHT22;9799;48.214;16.388;2022-09-09T17:34:13;19.90;99.90
19330;DHT22;9799;48.214;16.388;2022-09-09T17:37:35;19.70;99.90
19330;DHT22;9799;48.214;16.388;2022-09-09T17:41:04;19.50;99.90
19330;DHT22;9799;48.214;16.388;2022-09-09T17:44:25;19.20;99.90
19330;DHT22;9799;48.214;16.388;2022-09-09T17:47:48;19.10;99.90
19330;DHT22;9799;48.214;16.388;2022-09-09T17:51:12;18.80;99.90
19330;DHT22;9799;48.214;16.388;2022-09-09T17:54:35;18.80;99.90
19330;DHT22;9799;48.214;16.388;2022-09-09T17:57:56;18.80;99.90
19330;DHT22;9799;48.214;16.388;2022-09-09T18:01:20;18.80;99.90
19330;DHT22;9799;48.214;16.388;2022-09-09T18:04:42;18.80;99.90
19330;DHT22;9799;48.214;16.388;2022-09-09T18:08:03;18.80;99.90
19330;DHT22;9799;48.214;16.388;2022-09-09T18:11:28;18.90;99.90
19330;DHT22;9799;48.214;16.388;2022-09-09T18:14:49;18.90;99.90
19330;DHT22;9799;48.214;16.388;2022-09-09T18:18:11;18.90;99.90
19330;DHT22;9799;48.214;16.388;2022-09-09T18:21:33;18.80;99.90
19330;DHT22;9799;48.214;16.388;2022-09-09T18:24:54;18.90;99.90
19330;DHT22;9799;48.214;16.388;2022-09-09T18:28:18;18.80;99.90
19330;DHT22;9799;48.214;16.388;2022-09-09T18:31:40;18.70;99.90
19330;DHT22;9799;48.214;16.388;2022-09-09T18:35:02;18.70;99.90
19330;DHT22;9799;48.214;16.388;2022-09-09T18:38:23;18.60;99.90
19330;DHT22;9799;48.214;16.388;2022-09-09T18:41:45;18.50;99.90
19330;DHT22;9799;48.214;16.388;2022-09-09T18:45:08;18.70;99.90
19330;DHT22;9799;48.214;16.388;2022-09-09T18:48:31;18.70;99.90
19330;DHT22;9799;48.214;16.388;2022-09-09T18:51:52;18.50;99.90
19330;DHT22;9799;48.214;16.388;2022-09-09T18:55:13;18.50;99.90
19330;DHT22;9799;48.214;16.388;2022-09-09T18:58:35;18.60;99.90
19330;DHT22;9799;48.214;16.388;2022-09-09T19:01:58;18.60;99.90
19330;DHT22;9799;48.214;16.388;2022-09-09T19:05:19;18.60;99.90
19330;DHT22;9799;48.214;16.388;2022-09-09T19:08:41;18.60;99.90
19330;DHT22;9799;48.214;16.388;2022-09-09T19:12:02;18.50;99.90
19330;DHT22;9799;48.214;16.388;2022-09-09T19:15:24;18.50;99.90
19330;DHT22;9799;48.214;16.388;2022-09-09T19:18:48;18.50;99.90
19330;DHT22;9799;48.214;16.388;2022-09-09T19:22:10;18.40;99.90
19330;DHT22;9799;48.214;16.388;2022-09-09T19:25:34;18.40;99.90
19330;DHT22;9799;48.214;16.388;2022-09-09T19:28:56;18.40;99.90
19330;DHT22;9799;48.214;16.388;2022-09-09T19:32:18;18.30;99.90
19330;DHT22;9799;48.214;16.388;2022-09-09T19:35:41;18.20;99.90
19330;DHT22;9799;48.214;16.388;2022-09-09T19:39:03;18.20;99.90
19330;DHT22;9799;48.214;16.388;2022-09-09T19:42:24;18.20;99.90
19330;DHT22;9799;48.214;16.388;2022-09-09T19:45:55;18.20;99.90
19330;DHT22;9799;48.214;16.388;2022-09-09T19:49:17;18.00;99.90
19330;DHT22;9799;48.214;16.388;2022-09-09T19:52:39;18.00;99.90
19330;DHT22;9799;48.214;16.388;2022-09-09T19:56:01;18.00;99.90
19330;DHT22;9799;48.214;16.388;2022-09-09T19:59:23;18.00;99.90
19330;DHT22;9799;48.214;16.388;2022-09-09T20:02:44;18.00;99.90
19330;DHT22;9799;48.214;16.388;2022-09-09T20:06:06;18.00;99.90
19330;DHT22;9799;48.214;16.388;2022-09-09T20:09:28;18.00;99.90
19330;DHT22;9799;48.214;16.388;2022-09-09T20:12:49;18.10;99.90
19330;DHT22;9799;48.214;16.388;2022-09-09T20:16:12;18.10;99.90
19330;DHT22;9799;48.214;16.388;2022-09-09T20:19:33;18.10;99.90
19330;DHT22;9799;48.214;16.388;2022-09-09T20:22:54;18.00;99.90
19330;DHT22;9799;48.214;16.388;2022-09-09T20:26:19;18.10;99.90
19330;DHT22;9799;48.214;16.388;2022-09-09T20:29:40;18.10;99.90
19330;DHT22;9799;48.214;16.388;2022-09-09T20:33:01;18.10;99.90
19330;DHT22;9799;48.214;16.388;2022-09-09T20:36:25;18.10;99.90
19330;DHT22;9799;48.214;16.388;2022-09-09T20:39:47;18.00;99.90
19330;DHT22;9799;48.214;16.388;2022-09-09T20:43:11;18.00;99.90
19330;DHT22;9799;48.214;16.388;2022-09-09T20:46:33;17.90;99.90
19330;DHT22;9799;48.214;16.388;2022-09-09T20:49:55;17.80;99.90
19330;DHT22;9799;48.214;16.388;2022-09-09T20:53:16;17.90;99.90
19330;DHT22;9799;48.214;16.388;2022-09-09T20:56:40;18.00;99.90
19330;DHT22;9799;48.214;16.388;2022-09-09T21:00:03;18.00;99.90
19330;DHT22;9799;48.214;16.388;2022-09-09T21:03:25;17.80;99.90
19330;DHT22;9799;48.214;16.388;2022-09-09T21:06:49;17.70;99.90
19330;DHT22;9799;48.214;16.388;2022-09-09T21:10:11;17.80;99.90
19330;DHT22;9799;48.214;16.388;2022-09-09T21:13:33;17.70;99.90
19330;DHT22;9799;48.214;16.388;2022-09-09T21:16:56;17.70;99.90
19330;DHT22;9799;48.214;16.388;2022-09-09T21:20:17;17.70;99.90
19330;DHT22;9799;48.214;16.388;2022-09-09T21:23:38;17.70;99.90
19330;DHT22;9799;48.214;16.388;2022-09-09T21:27:00;17.60;99.90
19330;DHT22;9799;48.214;16.388;2022-09-09T21:30:22;17.60;99.90
19330;DHT22;9799;48.214;16.388;2022-09-09T21:33:45;17.60;99.90
19330;DHT22;9799;48.214;16.388;2022-09-09T21:37:06;17.50;99.90
19330;DHT22;9799;48.214;16.388;2022-09-09T21:40:28;17.60;99.90
19330;DHT22;9799;48.214;16.388;2022-09-09T21:43:51;17.60;99.90